July 4, 2022

Time Code Weather Temp. Visibility Ceiling Wind METAR/SPECI
9:55 pm
V
79 °F 6¼ mi+ - 310° 310° 3 kt METAR LIPI 041955Z 31003KT CAVOK 26/18 Q1013
8:55 pm
V
81 °F 6¼ mi+ - 340° 340° 4 kt METAR LIPI 041855Z 34004KT CAVOK 27/17 Q1012 RMK SCT SCT140 VIS MIN 9999 WIND THR06 02006KT WIND THR24 34004KT BLU
7:55 pm
V
86 °F 6¼ mi+ - 340° 340° 5 kt METAR LIPI 041755Z 34005KT CAVOK 30/17 Q1012 RMK FEW FEW120 VIS MIN 9999 WIND THR06 01006KT WIND THR24 35005KT BLU
6:55 pm
V
88 °F 6¼ mi+ - 330° 330° 6 kt METAR LIPI 041655Z 33006KT CAVOK 31/16 Q1012 RMK FEW FEW120 VIS MIN 9999 WIND THR06 01008KT WIND THR24 35008KT BLU
5:55 pm
V
88 °F 6¼ mi+ - 330° 330° 9 kt METAR LIPI 041555Z 33009KT 9999 FEW100 31/16 Q1012 RMK FEW VIS MIN 9999 WIND THR06 01012KT WIND THR24 35009KT BLU
4:55 pm
V
90 °F 6¼ mi+ - 330° 330° 7 kt METAR LIPI 041455Z 33007KT 9999 FEW100 32/17 Q1013 RMK SCT VIS MIN 9999 WIND THR06 34010KT WIND THR24 35011KT BLU
3:55 pm
V
95 °F 6¼ mi+ - 260° 260° 9 kt METAR LIPI 041355Z 26009KT 9999 SCT070 SCT080 35/18 Q1013 RMK BKN VIS MIN 9999 WIND THR06 29010KT WIND THR24 28009KT BLU
2:55 pm
V
95 °F 6¼ mi+ - 260° 260° 5 kt METAR LIPI 041255Z 26005KT 9999 FEW060 SCT080 35/16 Q1014
1:55 pm
V
95 °F 6¼ mi+ - 290° 290° 3 kt METAR LIPI 041155Z 29003KT CAVOK 35/15 Q1014 RMK BKN FEW120 BKN180 VIS MIN 9999 WIND THR06 30003KT WIND THR24 27004KT BLU
12:55 pm
V
95 °F 6¼ mi+ - 310° 310° 6 kt METAR LIPI 041055Z 31006KT CAVOK 35/17 Q1014
11:55 am
V
93 °F 6¼ mi+ - 350° 350° 4 kt METAR LIPI 040955Z 35004KT CAVOK 34/17 Q1014 RMK SCT FEW120 SCT180 VIS MIN 9999 WIND THR06 36003KT WIND THR24 31004KT BLU
10:55 am
V
91 °F 6¼ mi+ - 010° 010° 5 kt METAR LIPI 040855Z 01005KT CAVOK 33/19 Q1014
9:55 am
V
88 °F 6¼ mi+ - 360° 360° 6 kt METAR LIPI 040755Z 36006KT CAVOK 31/18 Q1015 RMK FEW FEW120 VIS MIN 9999 WIND THR06 02006KT WIND THR24 36007KT BLU
8:55 am
V
84 °F 6¼ mi+ - 350° 350° 8 kt METAR LIPI 040655Z 35008KT CAVOK 29/18 Q1015 RMK FEW FEW130 VIS MIN 9999 WIND THR06 02008KT WIND THR24 36007KT BLU
7:55 am
V
81 °F 6¼ mi+ - 360° 360° 5 kt METAR LIPI 040555Z 36005KT CAVOK 27/17 Q1015
6:55 am
V
79 °F 6¼ mi+ - 010° 010° 5 kt METAR LIPI 040455Z 01005KT CAVOK 26/18 Q1015 RMK BKN SCT110 SCT180 VIS MIN 9999 WIND THR06 04006KT WIND THR24 03007KT BLU
5:55 am
V
75 °F 6¼ mi+ - 350° 350° 6 kt METAR LIPI 040355Z 35006KT CAVOK 24/18 Q1015 RMK BKN SCT110 SCT200 VIS MIN 9999 WIND THR06 02007KT WIND THR24 01006KT BLU
4:55 am
V
75 °F 6¼ mi+ - 320° 320° 3 kt METAR LIPI 040255Z 32003KT 9999 FEW060 24/19 Q1015 RMK OVC SCT110 VIS MIN 9999 WIND THR06 36005KT WIND THR24 33003KT BLU
3:55 am
V
73 °F 6¼ mi+ 3,000 ft 330° 330° 5 kt METAR LIPI 040155Z 33005KT 9999 BKN030 SCT060 23/20 Q1017
2:55 am
V
73 °F 6¼ mi+ - 030° 030° 4 kt METAR LIPI 040055Z 03004KT 9999 SCT040 23/20 Q1016 RMK OVC BKN110 VIS MIN 9999 WIND THR06 01005KT WIND THR24 34004KT BLU
1:55 am
V
72 °F 6¼ mi+ - 340° 340° 4 kt METAR LIPI 032355Z 34004KT 9999 SCT040 22/21 Q1016
12:55 am
V
73 °F 6¼ mi+ 10,000 ft 340° 340° 5 kt METAR LIPI 032255Z 34005KT 9999 SCT040 BKN100 23/21 Q1016

July 3, 2022

Time Code Weather Temp. Visibility Ceiling Wind METAR/SPECI
11:55 pm
V
77 °F 6¼ mi+ - 060° 060° 2 kt METAR LIPI 032155Z 06002KT CAVOK 25/22 Q1016
10:55 pm
V
77 °F 6¼ mi+ - 080° 080° 3 kt METAR LIPI 032055Z 08003KT CAVOK 25/23 Q1015
9:55 pm
V
81 °F 6¼ mi+ - 090° 090° 6 kt METAR LIPI 031955Z 09006KT CAVOK 27/22 Q1015 RMK SCT SCT110 VIS MIN 9999 WIND THR06 12005KT WIND THR24 11006KT BLU
8:55 pm
V
84 °F 6¼ mi+ - 320° 320° 3 kt METAR LIPI 031855Z 32003KT CAVOK 29/21 Q1014 RMK FEW FEW130 VIS MIN 9999 WIND THR06 36003KT WIND THR24 34002KT BLU
7:55 pm
V
88 °F 6¼ mi+ - 270° 270° 2 kt METAR LIPI 031755Z 27002KT CAVOK 31/20 Q1014
6:55 pm
V
91 °F 6¼ mi+ - 260° 260° 3 kt METAR LIPI 031655Z 26003KT CAVOK 33/18 Q1014
5:55 pm
V
93 °F 6¼ mi+ - 190° 190° 5 kt METAR LIPI 031555Z 19005KT CAVOK 34/17 Q1014
4:55 pm
V
93 °F 6¼ mi+ - 220° 220° 4 kt METAR LIPI 031455Z 22004KT CAVOK 34/18 Q1015 RMK SKC VIS MIN 9999 WIND THR06 23004KT WIND THR24 23005KT BLU
3:55 pm
V
91 °F 6¼ mi+ - 200° 200° 6 kt METAR LIPI 031355Z 20006KT CAVOK 33/17 Q1015 RMK SKC VIS MIN 9999 WIND THR06 23006KT WIND THR24 26004KT BLU
2:55 pm
V
91 °F 6¼ mi+ - 210° 210° 5 kt METAR LIPI 031255Z 21005KT CAVOK 33/19 Q1015
1:55 pm
V
90 °F 6¼ mi+ - 210° 210° 3 kt METAR LIPI 031155Z 21003KT CAVOK 32/19 Q1016 RMK SKC VIS MIN 9999 WIND THR06 16004KT WIND THR24 24004KT BLU
12:55 pm
V
88 °F 6¼ mi+ - 280° 280° 4 kt METAR LIPI 031055Z 28004KT CAVOK 31/18 Q1016 RMK SKC VIS MIN 9999 WIND THR06 26003KT WIND THR24 36004KT BLU
11:55 am
V
86 °F 6¼ mi+ - 330° 330° 2 kt METAR LIPI 030955Z 33002KT CAVOK 30/17 Q1016 RMK SKC VIS MIN 9999 WIND THR06 16004KT WIND THR24 01003KT BLU
10:55 am
V
86 °F 6¼ mi+ - 060° 060° 5 kt METAR LIPI 030855Z 06005KT CAVOK 30/17 Q1016
9:55 am
V
84 °F 6¼ mi+ - 040° 040° 5 kt METAR LIPI 030755Z 04005KT CAVOK 29/17 Q1017 RMK SKC VIS MIN 9999 WIND THR06 10006KT WIND THR24 08006KT BLU
8:55 am
V
81 °F 6¼ mi+ - 020° 020° 4 kt METAR LIPI 030655Z 02004KT CAVOK 27/18 Q1017 RMK SKC VIS MIN 9999 WIND THR06 06007KT WIND THR24 07006KT BLU
7:55 am
V
77 °F 6¼ mi+ - 010° 010° 4 kt METAR LIPI 030555Z 01004KT CAVOK 25/18 Q1017
6:55 am
V
72 °F 6¼ mi+ - 350° 350° 4 kt METAR LIPI 030455Z 35004KT CAVOK 22/18 Q1016 RMK FEW FEW200 VIS MIN 9999 WIND THR06 03005KT WIND THR24 01004KT BLU
5:55 am
V
68 °F 6¼ mi+ - 340° 340° 5 kt METAR LIPI 030355Z 34005KT CAVOK 20/18 Q1017 RMK FEW FEW200 VIS MIN 9999 WIND THR06 03004KT WIND THR24 36003KT BLU
4:55 am
V
68 °F 6¼ mi+ - 340° 340° 2 kt METAR LIPI 030255Z 34002KT CAVOK 20/18 Q1016
3:55 am
V
70 °F 6¼ mi+ - 350° 350° 4 kt METAR LIPI 030155Z 35004KT CAVOK 21/18 Q1017 RMK FEW FEW150 VIS MIN 9999 WIND THR06 02004KT WIND THR24 36003KT BLU
2:55 am
V
72 °F 6¼ mi+ - 360° 360° 5 kt METAR LIPI 030055Z 36005KT CAVOK 22/18 Q1017
1:55 am
V
75 °F 6¼ mi+ - 020° 020° 5 kt METAR LIPI 022355Z 02005KT CAVOK 24/17 Q1017 RMK FEW FEW150 VIS MIN 9999 WIND THR06 06006KT WIND THR24 04006KT BLU
12:55 am
V
75 °F 6¼ mi+ - 030° 030° 7 kt METAR LIPI 022255Z 03007KT CAVOK 24/16 Q1017 RMK FEW FEW150 VIS MIN 9999 WIND THR06 06006KT WIND THR24 04007KT BLU

July 2, 2022

Time Code Weather Temp. Visibility Ceiling Wind METAR/SPECI
11:55 pm
V
75 °F 6¼ mi+ - 330° 330° 2 kt METAR LIPI 022155Z 33002KT CAVOK 24/17 Q1017
10:55 pm
V
79 °F 6¼ mi+ - 060° 060° 4 kt METAR LIPI 022055Z 06004KT CAVOK 26/19 Q1017 RMK FEW FEW150 VIS MIN 9999 WIND THR06 10005KT WIND THR24 08004KT BLU
9:55 pm
V
81 °F 6¼ mi+ - 040° 040° 4 kt METAR LIPI 021955Z 04004KT CAVOK 27/18 Q1016 RMK FEW FEW150 VIS MIN 9999 WIND THR06 08006KT WIND THR24 06004KT BLU
8:55 pm
V
84 °F 6¼ mi+ - 200° 200° 3 kt METAR LIPI 021855Z 20003KT CAVOK 29/16 Q1016 RMK SKC VIS MIN 9999 WIND THR06 24004KT WIND THR24 22003KT BLU
7:55 pm
V
90 °F 6¼ mi+ - 200° 200° 4 kt METAR LIPI 021755Z 20004KT CAVOK 32/14 Q1016 RMK SKC VIS MIN 9999 WIND THR06 23004KT WIND THR24 23005KT BLU
6:55 pm
V
91 °F 6¼ mi+ - 230° 230° 3 kt METAR LIPI 021655Z 23003KT CAVOK 33/13 Q1016 RMK SKC VIS MIN 9999 WIND THR06 25004KT WIND THR24 25004KT BLU
5:55 pm
V
91 °F 6¼ mi+ - 030° 030° 2 kt METAR LIPI 021555Z 03002KT CAVOK 33/13 Q1016
4:55 pm
V
91 °F 6¼ mi+ - 080° 080° 4 kt METAR LIPI 021455Z 08004KT CAVOK 33/14 Q1016 RMK SKC VIS MIN 9999 WIND THR06 15003KT WIND THR24 13002KT BLU
Older data

Download our app

Easy access to all aviation weather on your mobile phone and tablet.
With many features not available on the website, like offline support and a personal airport list.

We and third parties follow your internet behavior on our website with cookies. If you continue, we assume you agree with our cookie policy. Learn more